sensor_id;sensor_type;location;lat;lon;timestamp;pressure;altitude;pressure_sealevel;temperature;humidity
69971;BME280;57301;50.328;8.542;2023-02-19T00:01:13;98767.09;;;8.93;89.82
69971;BME280;57301;50.328;8.542;2023-02-19T00:03:40;98759.09;;;8.93;89.28
69971;BME280;57301;50.328;8.542;2023-02-19T00:06:09;98766.94;;;8.94;89.45
69971;BME280;57301;50.328;8.542;2023-02-19T00:08:37;98744.28;;;8.90;88.92
69971;BME280;57301;50.328;8.542;2023-02-19T00:11:10;98745.38;;;8.87;88.45
69971;BME280;57301;50.328;8.542;2023-02-19T00:13:39;98740.47;;;8.93;88.41
69971;BME280;57301;50.328;8.542;2023-02-19T00:16:08;98758.13;;;8.94;88.46
69971;BME280;57301;50.328;8.542;2023-02-19T00:18:35;98757.44;;;8.92;87.73
69971;BME280;57301;50.328;8.542;2023-02-19T00:21:02;98765.28;;;9.03;88.57
69971;BME280;57301;50.328;8.542;2023-02-19T00:23:29;98760.53;;;9.06;88.08
69971;BME280;57301;50.328;8.542;2023-02-19T00:25:56;98761.06;;;9.00;88.17
69971;BME280;57301;50.328;8.542;2023-02-19T00:28:43;98764.88;;;9.17;86.62
69971;BME280;57301;50.328;8.542;2023-02-19T00:31:19;98775.25;;;9.10;87.38
69971;BME280;57301;50.328;8.542;2023-02-19T00:33:48;98764.19;;;9.15;86.52
69971;BME280;57301;50.328;8.542;2023-02-19T00:36:15;98757.16;;;9.14;87.29
69971;BME280;57301;50.328;8.542;2023-02-19T00:38:42;98741.63;;;9.00;87.01
69971;BME280;57301;50.328;8.542;2023-02-19T00:41:10;98750.44;;;9.20;86.83
69971;BME280;57301;50.328;8.542;2023-02-19T00:43:53;98747.34;;;9.14;87.15
69971;BME280;57301;50.328;8.542;2023-02-19T00:48:56;98740.38;;;9.13;87.80
69971;BME280;57301;50.328;8.542;2023-02-19T00:51:25;98749.16;;;8.95;89.11
69971;BME280;57301;50.328;8.542;2023-02-19T00:53:52;98749.59;;;8.90;90.29
69971;BME280;57301;50.328;8.542;2023-02-19T00:56:19;98748.91;;;9.07;90.71
69971;BME280;57301;50.328;8.542;2023-02-19T00:58:46;98737.81;;;8.93;91.14
69971;BME280;57301;50.328;8.542;2023-02-19T01:01:13;98739.50;;;8.94;91.60
69971;BME280;57301;50.328;8.542;2023-02-19T01:03:40;98743.03;;;9.04;91.18
69971;BME280;57301;50.328;8.542;2023-02-19T01:06:08;98741.44;;;8.72;92.71
69971;BME280;57301;50.328;8.542;2023-02-19T01:08:36;98748.13;;;8.76;93.15
69971;BME280;57301;50.328;8.542;2023-02-19T01:11:04;98743.38;;;8.70;94.58
69971;BME280;57301;50.328;8.542;2023-02-19T01:13:32;98734.09;;;8.65;94.53
69971;BME280;57301;50.328;8.542;2023-02-19T01:16:13;98736.38;;;8.69;94.37
69971;BME280;57301;50.328;8.542;2023-02-19T01:18:41;98730.34;;;8.67;93.44
69971;BME280;57301;50.328;8.542;2023-02-19T01:21:11;98729.06;;;8.61;93.13
69971;BME280;57301;50.328;8.542;2023-02-19T01:23:38;98723.47;;;8.65;94.11
69971;BME280;57301;50.328;8.542;2023-02-19T01:26:07;98728.94;;;8.63;93.48
69971;BME280;57301;50.328;8.542;2023-02-19T01:28:34;98721.84;;;8.73;93.99
69971;BME280;57301;50.328;8.542;2023-02-19T01:31:06;98728.00;;;8.83;92.20
69971;BME280;57301;50.328;8.542;2023-02-19T01:33:34;98721.97;;;8.81;90.98
69971;BME280;57301;50.328;8.542;2023-02-19T01:36:04;98718.34;;;8.82;91.20
69971;BME280;57301;50.328;8.542;2023-02-19T01:38:31;98722.28;;;8.78;91.13
69971;BME280;57301;50.328;8.542;2023-02-19T01:41:03;98727.84;;;8.75;92.05
69971;BME280;57301;50.328;8.542;2023-02-19T01:43:34;98717.66;;;8.80;91.39
69971;BME280;57301;50.328;8.542;2023-02-19T01:46:19;98717.78;;;8.88;90.99
69971;BME280;57301;50.328;8.542;2023-02-19T01:48:46;98702.28;;;8.84;90.40
69971;BME280;57301;50.328;8.542;2023-02-19T01:51:17;98708.00;;;8.79;90.58
69971;BME280;57301;50.328;8.542;2023-02-19T01:53:49;98709.69;;;8.90;89.85
69971;BME280;57301;50.328;8.542;2023-02-19T01:56:19;98699.59;;;8.94;89.88
69971;BME280;57301;50.328;8.542;2023-02-19T01:58:46;98702.84;;;9.07;90.02
69971;BME280;57301;50.328;8.542;2023-02-19T02:01:13;98702.28;;;8.84;90.80
69971;BME280;57301;50.328;8.542;2023-02-19T02:03:41;98696.09;;;8.74;91.90
69971;BME280;57301;50.328;8.542;2023-02-19T02:06:12;98689.09;;;8.73;92.54
69971;BME280;57301;50.328;8.542;2023-02-19T02:08:40;98690.31;;;8.59;92.03
69971;BME280;57301;50.328;8.542;2023-02-19T02:11:26;98703.72;;;8.57;92.29
69971;BME280;57301;50.328;8.542;2023-02-19T02:13:53;98686.69;;;8.60;92.46
69971;BME280;57301;50.328;8.542;2023-02-19T02:22:00;98676.44;;;8.46;93.05
69971;BME280;57301;50.328;8.542;2023-02-19T02:32:34;98663.69;;;8.40;95.26
69971;BME280;57301;50.328;8.542;2023-02-19T02:35:07;98670.31;;;8.55;93.48
69971;BME280;57301;50.328;8.542;2023-02-19T02:37:38;98669.88;;;8.50;93.65
69971;BME280;57301;50.328;8.542;2023-02-19T02:40:07;98667.78;;;8.63;93.04
69971;BME280;57301;50.328;8.542;2023-02-19T02:42:38;98678.88;;;8.68;92.00
69971;BME280;57301;50.328;8.542;2023-02-19T02:48:24;98664.72;;;8.68;92.32
69971;BME280;57301;50.328;8.542;2023-02-19T02:51:09;98662.78;;;8.60;92.68
69971;BME280;57301;50.328;8.542;2023-02-19T02:56:24;98664.25;;;8.53;92.42
69971;BME280;57301;50.328;8.542;2023-02-19T02:58:52;98657.72;;;8.57;92.51
69971;BME280;57301;50.328;8.542;2023-02-19T03:01:22;98667.38;;;8.58;92.87
69971;BME280;57301;50.328;8.542;2023-02-19T03:04:26;98663.72;;;8.59;92.09
69971;BME280;57301;50.328;8.542;2023-02-19T03:06:56;98667.22;;;8.50;92.68
69971;BME280;57301;50.328;8.542;2023-02-19T03:09:31;98655.19;;;8.55;91.89
69971;BME280;57301;50.328;8.542;2023-02-19T03:12:10;98654.22;;;8.56;91.62
69971;BME280;57301;50.328;8.542;2023-02-19T03:15:00;98653.38;;;8.56;91.92
69971;BME280;57301;50.328;8.542;2023-02-19T03:17:57;98657.00;;;8.65;91.81
69971;BME280;57301;50.328;8.542;2023-02-19T03:20:49;98662.22;;;8.66;91.94
69971;BME280;57301;50.328;8.542;2023-02-19T03:23:18;98650.88;;;8.54;93.83
69971;BME280;57301;50.328;8.542;2023-02-19T03:25:46;98659.50;;;8.37;94.87
69971;BME280;57301;50.328;8.542;2023-02-19T03:28:33;98647.34;;;8.44;94.19
69971;BME280;57301;50.328;8.542;2023-02-19T03:31:22;98650.16;;;8.62;93.26
69971;BME280;57301;50.328;8.542;2023-02-19T03:33:53;98657.56;;;8.58;92.98
69971;BME280;57301;50.328;8.542;2023-02-19T03:36:22;98663.75;;;8.69;91.90
69971;BME280;57301;50.328;8.542;2023-02-19T03:39:02;98658.44;;;8.69;91.90
69971;BME280;57301;50.328;8.542;2023-02-19T03:44:22;98658.13;;;8.52;92.54
69971;BME280;57301;50.328;8.542;2023-02-19T03:49:34;98653.94;;;8.50;92.30
69971;BME280;57301;50.328;8.542;2023-02-19T03:52:17;98656.44;;;8.51;91.93
69971;BME280;57301;50.328;8.542;2023-02-19T03:55:14;98661.59;;;8.43;91.76
69971;BME280;57301;50.328;8.542;2023-02-19T03:57:48;98654.63;;;8.42;91.70
69971;BME280;57301;50.328;8.542;2023-02-19T04:00:22;98657.56;;;8.49;91.47
69971;BME280;57301;50.328;8.542;2023-02-19T04:05:32;98650.28;;;8.51;91.13
69971;BME280;57301;50.328;8.542;2023-02-19T04:08:12;98637.53;;;8.45;92.16
69971;BME280;57301;50.328;8.542;2023-02-19T04:10:40;98640.63;;;8.50;91.52
69971;BME280;57301;50.328;8.542;2023-02-19T04:13:19;98650.44;;;8.49;90.74
69971;BME280;57301;50.328;8.542;2023-02-19T04:15:49;98649.94;;;8.34;92.08
69971;BME280;57301;50.328;8.542;2023-02-19T04:18:19;98657.13;;;8.44;92.71
69971;BME280;57301;50.328;8.542;2023-02-19T04:20:48;98669.72;;;8.51;91.60
69971;BME280;57301;50.328;8.542;2023-02-19T04:23:19;98667.09;;;8.61;90.96
69971;BME280;57301;50.328;8.542;2023-02-19T04:25:51;98677.88;;;8.69;90.95
69971;BME280;57301;50.328;8.542;2023-02-19T04:28:20;98669.34;;;8.66;91.57
69971;BME280;57301;50.328;8.542;2023-02-19T04:30:46;98673.53;;;8.68;90.53
69971;BME280;57301;50.328;8.542;2023-02-19T04:33:13;98662.19;;;8.56;91.83
69971;BME280;57301;50.328;8.542;2023-02-19T04:35:40;98672.25;;;8.53;91.96
69971;BME280;57301;50.328;8.542;2023-02-19T04:38:07;98681.44;;;8.39;92.01
69971;BME280;57301;50.328;8.542;2023-02-19T04:40:33;98675.63;;;8.65;91.78
69971;BME280;57301;50.328;8.542;2023-02-19T04:42:59;98682.66;;;8.66;90.78
69971;BME280;57301;50.328;8.542;2023-02-19T04:45:26;98685.59;;;8.72;90.44
69971;BME280;57301;50.328;8.542;2023-02-19T04:47:52;98682.31;;;8.59;90.55
69971;BME280;57301;50.328;8.542;2023-02-19T04:50:19;98687.09;;;8.65;90.99
69971;BME280;57301;50.328;8.542;2023-02-19T04:52:45;98699.00;;;8.71;90.17
69971;BME280;57301;50.328;8.542;2023-02-19T04:55:12;98687.09;;;8.65;90.26
69971;BME280;57301;50.328;8.542;2023-02-19T04:57:38;98695.50;;;8.60;90.25
69971;BME280;57301;50.328;8.542;2023-02-19T05:00:05;98690.16;;;8.51;91.22
69971;BME280;57301;50.328;8.542;2023-02-19T05:02:33;98697.44;;;8.49;91.39
69971;BME280;57301;50.328;8.542;2023-02-19T05:05:00;98693.88;;;8.39;91.94
69971;BME280;57301;50.328;8.542;2023-02-19T05:07:26;98691.94;;;8.41;92.04
69971;BME280;57301;50.328;8.542;2023-02-19T05:09:52;98694.78;;;8.49;91.57
69971;BME280;57301;50.328;8.542;2023-02-19T05:12:19;98692.41;;;8.55;90.78
69971;BME280;57301;50.328;8.542;2023-02-19T05:14:46;98698.28;;;8.49;91.25
69971;BME280;57301;50.328;8.542;2023-02-19T05:17:12;98698.53;;;8.46;91.41
69971;BME280;57301;50.328;8.542;2023-02-19T05:19:39;98711.69;;;8.48;90.99
69971;BME280;57301;50.328;8.542;2023-02-19T05:22:05;98708.63;;;8.52;91.88
69971;BME280;57301;50.328;8.542;2023-02-19T05:24:32;98705.66;;;8.36;92.23
69971;BME280;57301;50.328;8.542;2023-02-19T05:26:58;98715.63;;;8.53;91.01
69971;BME280;57301;50.328;8.542;2023-02-19T05:29:25;98719.97;;;8.54;90.25
69971;BME280;57301;50.328;8.542;2023-02-19T05:31:51;98705.41;;;8.49;90.52
69971;BME280;57301;50.328;8.542;2023-02-19T05:34:18;98713.69;;;8.65;90.12
69971;BME280;57301;50.328;8.542;2023-02-19T05:36:44;98716.97;;;8.88;87.45
69971;BME280;57301;50.328;8.542;2023-02-19T05:39:11;98722.94;;;8.71;88.89
69971;BME280;57301;50.328;8.542;2023-02-19T05:41:37;98735.38;;;8.60;89.01
69971;BME280;57301;50.328;8.542;2023-02-19T05:44:04;98733.56;;;8.71;89.77
69971;BME280;57301;50.328;8.542;2023-02-19T05:46:31;98732.06;;;8.87;88.25
69971;BME280;57301;50.328;8.542;2023-02-19T05:48:58;98748.19;;;8.96;88.09
69971;BME280;57301;50.328;8.542;2023-02-19T05:51:25;98747.03;;;8.79;88.17
69971;BME280;57301;50.328;8.542;2023-02-19T05:53:52;98751.22;;;8.72;88.91
69971;BME280;57301;50.328;8.542;2023-02-19T05:56:32;98749.56;;;8.80;89.15
69971;BME280;57301;50.328;8.542;2023-02-19T05:59:04;98760.09;;;8.92;88.02
69971;BME280;57301;50.328;8.542;2023-02-19T06:01:33;98764.09;;;8.76;89.06
69971;BME280;57301;50.328;8.542;2023-02-19T06:04:00;98777.66;;;8.73;90.64
69971;BME280;57301;50.328;8.542;2023-02-19T06:06:27;98775.56;;;8.67;90.80
69971;BME280;57301;50.328;8.542;2023-02-19T06:08:53;98764.91;;;8.67;91.87
69971;BME280;57301;50.328;8.542;2023-02-19T06:11:20;98765.16;;;8.64;91.45
69971;BME280;57301;50.328;8.542;2023-02-19T06:13:47;98769.97;;;8.40;89.69
69971;BME280;57301;50.328;8.542;2023-02-19T06:16:16;98773.91;;;8.45;89.54
69971;BME280;57301;50.328;8.542;2023-02-19T06:18:43;98775.78;;;8.33;89.13
69971;BME280;57301;50.328;8.542;2023-02-19T06:21:10;98789.41;;;8.19;90.01
69971;BME280;57301;50.328;8.542;2023-02-19T06:23:38;98786.75;;;8.19;91.08
69971;BME280;57301;50.328;8.542;2023-02-19T06:26:12;98808.19;;;8.27;91.82
69971;BME280;57301;50.328;8.542;2023-02-19T06:28:39;98807.19;;;8.19;91.68
69971;BME280;57301;50.328;8.542;2023-02-19T06:31:07;98809.19;;;8.26;92.15
69971;BME280;57301;50.328;8.542;2023-02-19T06:33:36;98817.69;;;8.41;92.31
69971;BME280;57301;50.328;8.542;2023-02-19T06:36:11;98825.28;;;8.34;91.57
69971;BME280;57301;50.328;8.542;2023-02-19T06:38:38;98826.81;;;8.48;90.77
69971;BME280;57301;50.328;8.542;2023-02-19T06:41:05;98835.25;;;8.53;91.02
69971;BME280;57301;50.328;8.542;2023-02-19T06:43:33;98834.13;;;8.56;91.28
69971;BME280;57301;50.328;8.542;2023-02-19T06:46:01;98840.81;;;8.50;91.31
69971;BME280;57301;50.328;8.542;2023-02-19T06:48:28;98840.72;;;8.61;91.15
69971;BME280;57301;50.328;8.542;2023-02-19T06:50:55;98843.00;;;8.45;92.26
69971;BME280;57301;50.328;8.542;2023-02-19T06:53:22;98830.03;;;8.52;92.21
69971;BME280;57301;50.328;8.542;2023-02-19T06:56:03;98834.34;;;8.43;92.10
69971;BME280;57301;50.328;8.542;2023-02-19T06:58:31;98830.03;;;8.52;91.66
69971;BME280;57301;50.328;8.542;2023-02-19T07:00:59;98834.47;;;8.42;92.04
69971;BME280;57301;50.328;8.542;2023-02-19T07:03:25;98840.56;;;8.53;91.41
69971;BME280;57301;50.328;8.542;2023-02-19T07:05:53;98828.66;;;8.57;90.38
69971;BME280;57301;50.328;8.542;2023-02-19T07:08:19;98835.03;;;8.24;92.22
69971;BME280;57301;50.328;8.542;2023-02-19T07:10:53;98842.56;;;8.40;91.02
69971;BME280;57301;50.328;8.542;2023-02-19T07:13:21;98841.19;;;8.46;91.91
69971;BME280;57301;50.328;8.542;2023-02-19T07:15:48;98846.81;;;8.52;91.30
69971;BME280;57301;50.328;8.542;2023-02-19T07:18:18;98851.66;;;8.38;91.46
69971;BME280;57301;50.328;8.542;2023-02-19T07:20:44;98853.63;;;8.66;90.96
69971;BME280;57301;50.328;8.542;2023-02-19T07:23:10;98855.53;;;8.54;91.21
69971;BME280;57301;50.328;8.542;2023-02-19T07:25:37;98859.03;;;8.55;92.22
69971;BME280;57301;50.328;8.542;2023-02-19T07:28:05;98858.19;;;8.54;91.69
69971;BME280;57301;50.328;8.542;2023-02-19T07:30:31;98857.66;;;8.60;91.43
69971;BME280;57301;50.328;8.542;2023-02-19T07:32:58;98867.13;;;8.53;91.27
69971;BME280;57301;50.328;8.542;2023-02-19T07:35:24;98869.19;;;8.50;91.14
69971;BME280;57301;50.328;8.542;2023-02-19T07:37:51;98860.56;;;8.57;91.14
69971;BME280;57301;50.328;8.542;2023-02-19T07:40:17;98874.69;;;8.58;90.37
69971;BME280;57301;50.328;8.542;2023-02-19T07:42:44;98880.53;;;8.73;89.34
69971;BME280;57301;50.328;8.542;2023-02-19T07:45:10;98890.78;;;8.56;90.19
69971;BME280;57301;50.328;8.542;2023-02-19T07:47:37;98895.72;;;8.61;90.32
69971;BME280;57301;50.328;8.542;2023-02-19T07:50:03;98905.28;;;8.52;90.70
69971;BME280;57301;50.328;8.542;2023-02-19T07:52:32;98906.00;;;8.75;89.45
69971;BME280;57301;50.328;8.542;2023-02-19T07:54:59;98912.00;;;8.77;89.45
69971;BME280;57301;50.328;8.542;2023-02-19T07:57:28;98921.09;;;8.75;89.42
69971;BME280;57301;50.328;8.542;2023-02-19T07:59:56;98944.06;;;8.76;89.93
69971;BME280;57301;50.328;8.542;2023-02-19T08:02:24;98938.63;;;8.56;92.04
69971;BME280;57301;50.328;8.542;2023-02-19T08:05:08;98943.66;;;8.80;90.78
69971;BME280;57301;50.328;8.542;2023-02-19T08:07:36;98954.75;;;8.44;92.90
69971;BME280;57301;50.328;8.542;2023-02-19T08:10:03;98960.53;;;8.49;93.09
69971;BME280;57301;50.328;8.542;2023-02-19T08:12:56;98959.97;;;8.66;92.82
69971;BME280;57301;50.328;8.542;2023-02-19T08:15:41;98964.53;;;8.64;92.80
69971;BME280;57301;50.328;8.542;2023-02-19T08:18:09;98975.44;;;8.40;93.79
69971;BME280;57301;50.328;8.542;2023-02-19T08:20:35;98967.00;;;8.35;95.26
69971;BME280;57301;50.328;8.542;2023-02-19T08:23:02;98983.47;;;8.50;94.10
69971;BME280;57301;50.328;8.542;2023-02-19T08:25:29;98979.78;;;8.62;92.51
69971;BME280;57301;50.328;8.542;2023-02-19T08:27:55;98987.63;;;8.64;93.30
69971;BME280;57301;50.328;8.542;2023-02-19T08:30:22;98981.78;;;8.70;92.30
69971;BME280;57301;50.328;8.542;2023-02-19T08:32:49;98984.72;;;8.67;93.60
69971;BME280;57301;50.328;8.542;2023-02-19T08:35:16;98988.41;;;8.75;93.87
69971;BME280;57301;50.328;8.542;2023-02-19T08:37:42;98993.50;;;8.78;93.49
69971;BME280;57301;50.328;8.542;2023-02-19T08:40:10;98997.94;;;8.99;92.56
69971;BME280;57301;50.328;8.542;2023-02-19T08:42:37;99007.75;;;8.98;92.00
69971;BME280;57301;50.328;8.542;2023-02-19T08:45:04;99002.25;;;8.90;91.71
69971;BME280;57301;50.328;8.542;2023-02-19T08:47:31;99001.59;;;8.98;91.09
69971;BME280;57301;50.328;8.542;2023-02-19T08:49:59;98995.66;;;8.94;90.91
69971;BME280;57301;50.328;8.542;2023-02-19T08:52:25;99003.16;;;8.79;91.25
69971;BME280;57301;50.328;8.542;2023-02-19T08:54:52;99007.41;;;8.71;90.77
69971;BME280;57301;50.328;8.542;2023-02-19T08:57:19;99011.00;;;8.81;91.24
69971;BME280;57301;50.328;8.542;2023-02-19T08:59:45;99005.16;;;8.87;91.14
69971;BME280;57301;50.328;8.542;2023-02-19T09:02:12;99017.03;;;9.04;89.64
69971;BME280;57301;50.328;8.542;2023-02-19T09:04:38;99025.31;;;9.10;89.57
69971;BME280;57301;50.328;8.542;2023-02-19T09:07:05;99026.09;;;9.22;88.83
69971;BME280;57301;50.328;8.542;2023-02-19T09:09:35;99027.69;;;9.34;87.42
69971;BME280;57301;50.328;8.542;2023-02-19T09:12:06;99034.06;;;9.53;86.64
69971;BME280;57301;50.328;8.542;2023-02-19T09:14:34;99045.69;;;9.52;85.73
69971;BME280;57301;50.328;8.542;2023-02-19T09:17:01;99044.94;;;9.80;85.34
69971;BME280;57301;50.328;8.542;2023-02-19T09:19:28;99048.56;;;9.69;84.02
69971;BME280;57301;50.328;8.542;2023-02-19T09:21:55;99038.19;;;9.36;85.51
69971;BME280;57301;50.328;8.542;2023-02-19T09:24:22;99036.28;;;9.48;85.28
69971;BME280;57301;50.328;8.542;2023-02-19T09:26:53;99037.72;;;9.52;84.65
69971;BME280;57301;50.328;8.542;2023-02-19T09:29:20;99036.13;;;9.39;85.11
69971;BME280;57301;50.328;8.542;2023-02-19T09:31:47;99052.69;;;9.01;87.32
69971;BME280;57301;50.328;8.542;2023-02-19T09:34:14;99032.16;;;9.34;85.51
69971;BME280;57301;50.328;8.542;2023-02-19T09:36:40;99047.41;;;9.32;85.62
69971;BME280;57301;50.328;8.542;2023-02-19T09:39:08;99047.16;;;9.35;85.64
69971;BME280;57301;50.328;8.542;2023-02-19T09:41:43;99041.00;;;9.34;85.23
69971;BME280;57301;50.328;8.542;2023-02-19T09:44:14;99041.53;;;9.28;85.40
69971;BME280;57301;50.328;8.542;2023-02-19T09:46:48;99053.47;;;9.34;85.06
69971;BME280;57301;50.328;8.542;2023-02-19T09:49:18;99051.91;;;9.10;86.02
69971;BME280;57301;50.328;8.542;2023-02-19T09:51:52;99059.94;;;9.20;86.15
69971;BME280;57301;50.328;8.542;2023-02-19T09:54:25;99061.25;;;9.26;85.35
69971;BME280;57301;50.328;8.542;2023-02-19T09:56:55;99062.69;;;9.09;86.43
69971;BME280;57301;50.328;8.542;2023-02-19T09:59:25;99058.41;;;8.97;86.88
69971;BME280;57301;50.328;8.542;2023-02-19T10:02:02;99075.59;;;9.34;86.08
69971;BME280;57301;50.328;8.542;2023-02-19T10:04:29;99085.94;;;9.58;84.29
69971;BME280;57301;50.328;8.542;2023-02-19T10:06:57;99087.84;;;9.47;85.26
69971;BME280;57301;50.328;8.542;2023-02-19T10:09:29;99081.19;;;9.62;84.49
69971;BME280;57301;50.328;8.542;2023-02-19T10:11:57;99101.50;;;9.63;83.97
69971;BME280;57301;50.328;8.542;2023-02-19T10:14:34;99109.78;;;9.60;84.48
69971;BME280;57301;50.328;8.542;2023-02-19T10:17:04;99104.06;;;9.43;83.99
69971;BME280;57301;50.328;8.542;2023-02-19T10:19:32;99107.31;;;9.47;84.67
69971;BME280;57301;50.328;8.542;2023-02-19T10:22:02;99115.94;;;9.60;84.42
69971;BME280;57301;50.328;8.542;2023-02-19T10:24:29;99111.06;;;9.65;84.03
69971;BME280;57301;50.328;8.542;2023-02-19T10:26:58;99117.00;;;9.27;84.42
69971;BME280;57301;50.328;8.542;2023-02-19T10:29:24;99115.63;;;9.54;84.90
69971;BME280;57301;50.328;8.542;2023-02-19T10:32:20;99118.97;;;9.56;84.27
69971;BME280;57301;50.328;8.542;2023-02-19T10:37:42;99127.50;;;10.61;81.35
69971;BME280;57301;50.328;8.542;2023-02-19T10:40:17;99148.28;;;10.57;81.00
69971;BME280;57301;50.328;8.542;2023-02-19T10:42:49;99140.59;;;10.64;80.59
69971;BME280;57301;50.328;8.542;2023-02-19T10:45:22;99152.13;;;11.03;79.92
69971;BME280;57301;50.328;8.542;2023-02-19T10:47:50;99150.09;;;11.63;78.47
69971;BME280;57301;50.328;8.542;2023-02-19T10:50:27;99160.19;;;11.79;74.90
69971;BME280;57301;50.328;8.542;2023-02-19T10:52:57;99175.03;;;11.25;76.42
69971;BME280;57301;50.328;8.542;2023-02-19T10:55:32;99161.72;;;10.46;77.74
69971;BME280;57301;50.328;8.542;2023-02-19T10:58:21;99178.00;;;10.12;79.41
69971;BME280;57301;50.328;8.542;2023-02-19T11:03:37;99181.25;;;10.16;82.57
69971;BME280;57301;50.328;8.542;2023-02-19T11:06:06;99186.34;;;9.98;82.77
69971;BME280;57301;50.328;8.542;2023-02-19T11:11:29;99187.81;;;10.12;82.37
69971;BME280;57301;50.328;8.542;2023-02-19T11:13:59;99183.53;;;9.69;84.67
69971;BME280;57301;50.328;8.542;2023-02-19T11:16:40;99195.53;;;9.84;84.68
69971;BME280;57301;50.328;8.542;2023-02-19T11:19:27;99201.44;;;10.18;84.56
69971;BME280;57301;50.328;8.542;2023-02-19T11:21:55;99198.03;;;10.28;84.22
69971;BME280;57301;50.328;8.542;2023-02-19T11:24:27;99199.22;;;10.44;83.94
69971;BME280;57301;50.328;8.542;2023-02-19T11:27:00;99188.34;;;10.36;82.27
69971;BME280;57301;50.328;8.542;2023-02-19T11:29:28;99189.91;;;10.08;84.23
69971;BME280;57301;50.328;8.542;2023-02-19T11:32:24;99185.59;;;10.17;84.14
69971;BME280;57301;50.328;8.542;2023-02-19T11:35:03;99193.59;;;10.17;84.20
69971;BME280;57301;50.328;8.542;2023-02-19T11:37:54;99197.31;;;10.05;83.74
69971;BME280;57301;50.328;8.542;2023-02-19T11:40:55;99196.63;;;10.03;84.37
69971;BME280;57301;50.328;8.542;2023-02-19T11:43:39;99199.75;;;9.87;85.32
69971;BME280;57301;50.328;8.542;2023-02-19T11:49:30;99193.88;;;10.14;84.60
69971;BME280;57301;50.328;8.542;2023-02-19T11:57:23;99187.28;;;10.18;85.01
69971;BME280;57301;50.328;8.542;2023-02-19T12:02:44;99192.13;;;11.51;80.22
69971;BME280;57301;50.328;8.542;2023-02-19T12:19:42;99187.19;;;10.69;81.06
69971;BME280;57301;50.328;8.542;2023-02-19T12:22:29;99194.75;;;10.64;80.71
69971;BME280;57301;50.328;8.542;2023-02-19T12:25:17;99198.03;;;10.87;79.37
69971;BME280;57301;50.328;8.542;2023-02-19T12:30:55;99208.50;;;10.60;79.84
69971;BME280;57301;50.328;8.542;2023-02-19T12:34:09;99184.16;;;10.93;80.02
69971;BME280;57301;50.328;8.542;2023-02-19T12:42:30;99170.59;;;11.82;76.44
69971;BME280;57301;50.328;8.542;2023-02-19T12:45:15;99176.41;;;12.42;71.64
69971;BME280;57301;50.328;8.542;2023-02-19T12:47:46;99175.66;;;12.22;72.35
69971;BME280;57301;50.328;8.542;2023-02-19T12:50:22;99173.09;;;12.76;71.65
69971;BME280;57301;50.328;8.542;2023-02-19T12:53:20;99167.59;;;14.18;67.66
69971;BME280;57301;50.328;8.542;2023-02-19T12:55:49;99175.00;;;14.24;65.16
69971;BME280;57301;50.328;8.542;2023-02-19T12:58:29;99168.41;;;13.41;67.83
69971;BME280;57301;50.328;8.542;2023-02-19T13:00:58;99164.34;;;13.37;67.84
69971;BME280;57301;50.328;8.542;2023-02-19T13:03:32;99163.41;;;13.64;66.74
69971;BME280;57301;50.328;8.542;2023-02-19T13:09:13;99181.31;;;14.23;64.94
69971;BME280;57301;50.328;8.542;2023-02-19T13:11:53;99176.03;;;14.74;63.13
69971;BME280;57301;50.328;8.542;2023-02-19T13:16:59;99192.97;;;13.36;65.56
69971;BME280;57301;50.328;8.542;2023-02-19T13:19:29;99195.25;;;12.13;70.35
69971;BME280;57301;50.328;8.542;2023-02-19T13:22:25;99195.69;;;12.08;71.91
69971;BME280;57301;50.328;8.542;2023-02-19T13:26:15;99200.28;;;11.01;74.07
69971;BME280;57301;50.328;8.542;2023-02-19T13:31:56;99210.81;;;10.84;76.04
69971;BME280;57301;50.328;8.542;2023-02-19T13:37:17;99200.94;;;12.00;71.31
69971;BME280;57301;50.328;8.542;2023-02-19T13:39:49;99200.50;;;12.87;69.10
69971;BME280;57301;50.328;8.542;2023-02-19T13:42:27;99198.78;;;12.69;68.70
69971;BME280;57301;50.328;8.542;2023-02-19T13:45:31;99195.66;;;12.46;67.35
69971;BME280;57301;50.328;8.542;2023-02-19T13:48:14;99207.31;;;11.61;70.58
69971;BME280;57301;50.328;8.542;2023-02-19T13:58:57;99207.19;;;10.94;74.41
69971;BME280;57301;50.328;8.542;2023-02-19T14:04:29;99216.06;;;10.45;76.36
69971;BME280;57301;50.328;8.542;2023-02-19T14:17:42;99208.56;;;10.98;73.36
69971;BME280;57301;50.328;8.542;2023-02-19T14:28:25;99222.66;;;12.25;68.70
69971;BME280;57301;50.328;8.542;2023-02-19T14:31:31;99230.09;;;12.31;68.57
69971;BME280;57301;50.328;8.542;2023-02-19T14:34:02;99231.19;;;12.38;69.21
69971;BME280;57301;50.328;8.542;2023-02-19T14:39:34;99226.31;;;11.38;71.82
69971;BME280;57301;50.328;8.542;2023-02-19T14:42:16;99227.16;;;11.39;73.02
69971;BME280;57301;50.328;8.542;2023-02-19T14:44:54;99224.63;;;11.18;73.66
69971;BME280;57301;50.328;8.542;2023-02-19T14:47:24;99226.72;;;11.34;73.56
69971;BME280;57301;50.328;8.542;2023-02-19T14:50:01;99231.06;;;11.64;70.88
69971;BME280;57301;50.328;8.542;2023-02-19T14:52:52;99218.53;;;11.83;71.04
69971;BME280;57301;50.328;8.542;2023-02-19T14:55:30;99219.28;;;11.56;72.28
69971;BME280;57301;50.328;8.542;2023-02-19T14:58:03;99222.53;;;11.31;73.54
69971;BME280;57301;50.328;8.542;2023-02-19T15:00:39;99225.84;;;11.04;74.58
69971;BME280;57301;50.328;8.542;2023-02-19T15:03:24;99237.03;;;10.79;73.62
69971;BME280;57301;50.328;8.542;2023-02-19T15:05:58;99239.84;;;10.77;73.00
69971;BME280;57301;50.328;8.542;2023-02-19T15:08:47;99255.56;;;10.70;73.93
69971;BME280;57301;50.328;8.542;2023-02-19T15:11:21;99258.19;;;10.61;73.53
69971;BME280;57301;50.328;8.542;2023-02-19T15:14:12;99260.03;;;10.60;73.38
69971;BME280;57301;50.328;8.542;2023-02-19T15:17:12;99264.81;;;10.36;75.50
69971;BME280;57301;50.328;8.542;2023-02-19T15:19:44;99269.22;;;10.46;74.89
69971;BME280;57301;50.328;8.542;2023-02-19T15:22:19;99279.75;;;10.48;74.38
69971;BME280;57301;50.328;8.542;2023-02-19T15:24:59;99273.50;;;10.28;74.13
69971;BME280;57301;50.328;8.542;2023-02-19T15:27:28;99279.41;;;10.32;73.64
69971;BME280;57301;50.328;8.542;2023-02-19T15:29:58;99290.13;;;10.00;75.67
69971;BME280;57301;50.328;8.542;2023-02-19T15:32:28;99271.75;;;9.96;74.26